Terminal Aerodrome Forecast
Issued by NWS Corpus Christi, TX

Home | Current Version | Previous Version | Text Only | Print | Product List | Glossary On
Versions: 1 2 3 4 5 6 7 8 9 10 11 12
000
FTUS44 KCRP 241128
TAFVCT
TAF
KVCT 241128Z 2412/2512 VRB04KT P6SM FEW250
     FM241700 13005KT P6SM BKN250
     FM242000 16010KT P6SM BKN250
     FM250100 17007KT P6SM SCT150
     FM250900 17006KT 5SM BR SCT021=

USA.gov is the U.S. government's official web portal to all federal, state and local government web resources and services.